sensor_id;sensor_type;location;lat;lon;timestamp;P1;durP1;ratioP1;P2;durP2;ratioP2
9304;SDS011;4690;52.422;13.486;2022-08-21T00:05:03;8.38;;;7.57;;
9304;SDS011;4690;52.422;13.486;2022-08-21T00:07:29;9.00;;;8.20;;
9304;SDS011;4690;52.422;13.486;2022-08-21T00:09:55;9.80;;;8.13;;
9304;SDS011;4690;52.422;13.486;2022-08-21T00:12:21;7.70;;;6.97;;
9304;SDS011;4690;52.422;13.486;2022-08-21T00:14:47;7.43;;;6.80;;
9304;SDS011;4690;52.422;13.486;2022-08-21T00:17:13;7.55;;;6.85;;
9304;SDS011;4690;52.422;13.486;2022-08-21T00:19:38;10.07;;;8.80;;
9304;SDS011;4690;52.422;13.486;2022-08-21T00:22:04;8.80;;;7.95;;
9304;SDS011;4690;52.422;13.486;2022-08-21T00:24:30;8.32;;;7.45;;
9304;SDS011;4690;52.422;13.486;2022-08-21T00:26:56;8.65;;;7.75;;
9304;SDS011;4690;52.422;13.486;2022-08-21T00:29:21;10.00;;;8.43;;
9304;SDS011;4690;52.422;13.486;2022-08-21T00:31:47;9.27;;;8.20;;
9304;SDS011;4690;52.422;13.486;2022-08-21T00:34:13;14.52;;;9.57;;
9304;SDS011;4690;52.422;13.486;2022-08-21T00:36:39;8.30;;;7.50;;
9304;SDS011;4690;52.422;13.486;2022-08-21T00:39:06;12.25;;;9.18;;
9304;SDS011;4690;52.422;13.486;2022-08-21T00:41:33;8.43;;;7.63;;
9304;SDS011;4690;52.422;13.486;2022-08-21T00:44:02;9.25;;;8.00;;
9304;SDS011;4690;52.422;13.486;2022-08-21T00:46:29;9.60;;;8.18;;
9304;SDS011;4690;52.422;13.486;2022-08-21T00:48:55;7.95;;;7.15;;
9304;SDS011;4690;52.422;13.486;2022-08-21T00:51:23;12.63;;;9.13;;
9304;SDS011;4690;52.422;13.486;2022-08-21T00:54:05;8.07;;;7.30;;
9304;SDS011;4690;52.422;13.486;2022-08-21T00:56:32;14.35;;;8.48;;
9304;SDS011;4690;52.422;13.486;2022-08-21T00:58:59;8.70;;;7.80;;
9304;SDS011;4690;52.422;13.486;2022-08-21T01:01:27;8.50;;;7.65;;
9304;SDS011;4690;52.422;13.486;2022-08-21T01:03:53;8.57;;;7.78;;
9304;SDS011;4690;52.422;13.486;2022-08-21T01:06:19;9.00;;;7.50;;
9304;SDS011;4690;52.422;13.486;2022-08-21T01:08:45;8.85;;;7.20;;
9304;SDS011;4690;52.422;13.486;2022-08-21T01:11:13;7.50;;;6.80;;
9304;SDS011;4690;52.422;13.486;2022-08-21T01:13:43;7.57;;;6.88;;
9304;SDS011;4690;52.422;13.486;2022-08-21T01:16:12;7.93;;;7.22;;
9304;SDS011;4690;52.422;13.486;2022-08-21T01:18:42;13.63;;;7.57;;
9304;SDS011;4690;52.422;13.486;2022-08-21T01:21:27;8.10;;;7.30;;
9304;SDS011;4690;52.422;13.486;2022-08-21T01:23:54;7.82;;;7.13;;
9304;SDS011;4690;52.422;13.486;2022-08-21T01:26:24;8.05;;;7.30;;
9304;SDS011;4690;52.422;13.486;2022-08-21T01:28:57;7.97;;;7.15;;
9304;SDS011;4690;52.422;13.486;2022-08-21T01:31:30;10.80;;;7.40;;
9304;SDS011;4690;52.422;13.486;2022-08-21T01:33:58;9.15;;;7.35;;
9304;SDS011;4690;52.422;13.486;2022-08-21T01:36:24;7.70;;;6.75;;
9304;SDS011;4690;52.422;13.486;2022-08-21T01:38:50;7.70;;;6.90;;
9304;SDS011;4690;52.422;13.486;2022-08-21T01:41:16;7.20;;;6.50;;
9304;SDS011;4690;52.422;13.486;2022-08-21T01:43:42;8.35;;;7.10;;
9304;SDS011;4690;52.422;13.486;2022-08-21T01:46:10;8.52;;;7.32;;
9304;SDS011;4690;52.422;13.486;2022-08-21T01:48:37;10.43;;;7.72;;
9304;SDS011;4690;52.422;13.486;2022-08-21T01:51:04;10.73;;;8.20;;
9304;SDS011;4690;52.422;13.486;2022-08-21T01:53:31;7.88;;;7.10;;
9304;SDS011;4690;52.422;13.486;2022-08-21T01:56:00;9.57;;;7.55;;
9304;SDS011;4690;52.422;13.486;2022-08-21T01:58:32;7.15;;;6.47;;
9304;SDS011;4690;52.422;13.486;2022-08-21T02:00:58;6.82;;;6.32;;
9304;SDS011;4690;52.422;13.486;2022-08-21T02:03:26;7.18;;;6.47;;
9304;SDS011;4690;52.422;13.486;2022-08-21T02:05:55;8.30;;;6.55;;
9304;SDS011;4690;52.422;13.486;2022-08-21T02:08:22;8.45;;;6.72;;
9304;SDS011;4690;52.422;13.486;2022-08-21T02:10:48;9.15;;;7.25;;
9304;SDS011;4690;52.422;13.486;2022-08-21T02:13:16;7.13;;;6.40;;
9304;SDS011;4690;52.422;13.486;2022-08-21T02:15:43;6.53;;;5.97;;
9304;SDS011;4690;52.422;13.486;2022-08-21T02:18:09;10.13;;;6.50;;
9304;SDS011;4690;52.422;13.486;2022-08-21T02:20:39;9.13;;;6.38;;
9304;SDS011;4690;52.422;13.486;2022-08-21T02:23:10;6.07;;;5.32;;
9304;SDS011;4690;52.422;13.486;2022-08-21T02:25:37;5.45;;;4.95;;
9304;SDS011;4690;52.422;13.486;2022-08-21T02:28:08;8.35;;;5.72;;
9304;SDS011;4690;52.422;13.486;2022-08-21T02:30:43;5.50;;;5.00;;
9304;SDS011;4690;52.422;13.486;2022-08-21T02:33:11;6.22;;;5.63;;
9304;SDS011;4690;52.422;13.486;2022-08-21T02:35:39;7.32;;;5.53;;
9304;SDS011;4690;52.422;13.486;2022-08-21T02:38:09;5.95;;;5.28;;
9304;SDS011;4690;52.422;13.486;2022-08-21T02:40:39;6.47;;;5.10;;
9304;SDS011;4690;52.422;13.486;2022-08-21T02:43:09;8.70;;;5.50;;
9304;SDS011;4690;52.422;13.486;2022-08-21T02:45:35;6.03;;;5.25;;
9304;SDS011;4690;52.422;13.486;2022-08-21T02:48:07;6.03;;;5.00;;
9304;SDS011;4690;52.422;13.486;2022-08-21T02:50:37;12.32;;;6.50;;
9304;SDS011;4690;52.422;13.486;2022-08-21T02:53:08;6.95;;;5.80;;
9304;SDS011;4690;52.422;13.486;2022-08-21T02:55:38;8.20;;;5.60;;
9304;SDS011;4690;52.422;13.486;2022-08-21T02:58:04;5.68;;;5.18;;
9304;SDS011;4690;52.422;13.486;2022-08-21T03:00:33;7.68;;;5.35;;
9304;SDS011;4690;52.422;13.486;2022-08-21T03:03:03;8.15;;;5.55;;
9304;SDS011;4690;52.422;13.486;2022-08-21T03:05:31;8.05;;;5.75;;
9304;SDS011;4690;52.422;13.486;2022-08-21T03:07:59;8.27;;;5.55;;
9304;SDS011;4690;52.422;13.486;2022-08-21T03:10:27;7.13;;;5.70;;
9304;SDS011;4690;52.422;13.486;2022-08-21T03:12:54;7.30;;;5.00;;
9304;SDS011;4690;52.422;13.486;2022-08-21T03:15:20;6.00;;;5.35;;
9304;SDS011;4690;52.422;13.486;2022-08-21T03:17:49;7.40;;;5.38;;
9304;SDS011;4690;52.422;13.486;2022-08-21T03:20:17;5.60;;;5.10;;
9304;SDS011;4690;52.422;13.486;2022-08-21T03:22:47;6.18;;;4.72;;
9304;SDS011;4690;52.422;13.486;2022-08-21T03:25:13;4.78;;;4.38;;
9304;SDS011;4690;52.422;13.486;2022-08-21T03:27:39;8.35;;;5.32;;
9304;SDS011;4690;52.422;13.486;2022-08-21T03:30:06;6.97;;;5.10;;
9304;SDS011;4690;52.422;13.486;2022-08-21T03:32:33;5.70;;;5.03;;
9304;SDS011;4690;52.422;13.486;2022-08-21T03:35:00;7.57;;;4.85;;
9304;SDS011;4690;52.422;13.486;2022-08-21T03:37:26;5.28;;;4.78;;
9304;SDS011;4690;52.422;13.486;2022-08-21T03:39:52;5.50;;;4.45;;
9304;SDS011;4690;52.422;13.486;2022-08-21T03:42:18;5.32;;;4.50;;
9304;SDS011;4690;52.422;13.486;2022-08-21T03:44:44;6.68;;;4.90;;
9304;SDS011;4690;52.422;13.486;2022-08-21T03:47:10;4.65;;;4.32;;
9304;SDS011;4690;52.422;13.486;2022-08-21T03:49:36;6.10;;;4.85;;
9304;SDS011;4690;52.422;13.486;2022-08-21T03:52:02;6.35;;;5.13;;
9304;SDS011;4690;52.422;13.486;2022-08-21T03:54:29;7.03;;;4.78;;
9304;SDS011;4690;52.422;13.486;2022-08-21T03:56:55;5.18;;;4.68;;
9304;SDS011;4690;52.422;13.486;2022-08-21T03:59:21;7.10;;;4.65;;
9304;SDS011;4690;52.422;13.486;2022-08-21T04:01:51;5.95;;;4.53;;
9304;SDS011;4690;52.422;13.486;2022-08-21T04:04:20;5.97;;;4.50;;
9304;SDS011;4690;52.422;13.486;2022-08-21T04:06:45;7.03;;;4.65;;
9304;SDS011;4690;52.422;13.486;2022-08-21T04:09:11;7.38;;;4.75;;
9304;SDS011;4690;52.422;13.486;2022-08-21T04:11:37;6.07;;;4.43;;
9304;SDS011;4690;52.422;13.486;2022-08-21T04:14:03;5.38;;;4.47;;
9304;SDS011;4690;52.422;13.486;2022-08-21T04:16:29;6.15;;;4.72;;
9304;SDS011;4690;52.422;13.486;2022-08-21T04:18:55;6.60;;;4.75;;
9304;SDS011;4690;52.422;13.486;2022-08-21T04:21:21;6.50;;;4.80;;
9304;SDS011;4690;52.422;13.486;2022-08-21T04:23:48;5.25;;;4.53;;
9304;SDS011;4690;52.422;13.486;2022-08-21T04:26:14;7.20;;;5.00;;
9304;SDS011;4690;52.422;13.486;2022-08-21T04:28:40;7.07;;;4.80;;
9304;SDS011;4690;52.422;13.486;2022-08-21T04:31:07;6.53;;;4.07;;
9304;SDS011;4690;52.422;13.486;2022-08-21T04:33:34;5.10;;;4.30;;
9304;SDS011;4690;52.422;13.486;2022-08-21T04:36:00;6.40;;;4.20;;
9304;SDS011;4690;52.422;13.486;2022-08-21T04:38:26;5.72;;;4.40;;
9304;SDS011;4690;52.422;13.486;2022-08-21T04:40:52;6.28;;;4.53;;
9304;SDS011;4690;52.422;13.486;2022-08-21T04:43:19;8.52;;;4.78;;
9304;SDS011;4690;52.422;13.486;2022-08-21T04:45:47;4.68;;;4.03;;
9304;SDS011;4690;52.422;13.486;2022-08-21T04:48:15;5.40;;;4.13;;
9304;SDS011;4690;52.422;13.486;2022-08-21T04:53:31;8.10;;;4.40;;
9304;SDS011;4690;52.422;13.486;2022-08-21T04:56:08;9.73;;;4.95;;
9304;SDS011;4690;52.422;13.486;2022-08-21T04:58:39;7.45;;;4.40;;
9304;SDS011;4690;52.422;13.486;2022-08-21T05:01:07;9.70;;;4.90;;
9304;SDS011;4690;52.422;13.486;2022-08-21T05:03:39;6.15;;;4.47;;
9304;SDS011;4690;52.422;13.486;2022-08-21T05:06:06;6.97;;;4.88;;
9304;SDS011;4690;52.422;13.486;2022-08-21T05:08:37;6.88;;;4.55;;
9304;SDS011;4690;52.422;13.486;2022-08-21T05:11:05;4.85;;;3.95;;
9304;SDS011;4690;52.422;13.486;2022-08-21T05:13:31;11.75;;;4.97;;
9304;SDS011;4690;52.422;13.486;2022-08-21T05:15:57;6.18;;;4.20;;
9304;SDS011;4690;52.422;13.486;2022-08-21T05:18:23;6.80;;;4.55;;
9304;SDS011;4690;52.422;13.486;2022-08-21T05:20:50;13.85;;;4.85;;
9304;SDS011;4690;52.422;13.486;2022-08-21T05:23:16;9.43;;;5.10;;
9304;SDS011;4690;52.422;13.486;2022-08-21T05:25:42;9.73;;;4.65;;
9304;SDS011;4690;52.422;13.486;2022-08-21T05:28:08;11.85;;;4.40;;
9304;SDS011;4690;52.422;13.486;2022-08-21T05:30:35;7.65;;;4.50;;
9304;SDS011;4690;52.422;13.486;2022-08-21T05:33:02;5.72;;;4.07;;
9304;SDS011;4690;52.422;13.486;2022-08-21T05:35:30;4.47;;;3.63;;
9304;SDS011;4690;52.422;13.486;2022-08-21T05:37:57;9.05;;;4.38;;
9304;SDS011;4690;52.422;13.486;2022-08-21T05:40:25;10.50;;;4.43;;
9304;SDS011;4690;52.422;13.486;2022-08-21T05:42:51;7.57;;;4.22;;
9304;SDS011;4690;52.422;13.486;2022-08-21T05:45:19;6.30;;;3.90;;
9304;SDS011;4690;52.422;13.486;2022-08-21T05:47:45;5.93;;;3.97;;
9304;SDS011;4690;52.422;13.486;2022-08-21T05:50:11;9.90;;;4.53;;
9304;SDS011;4690;52.422;13.486;2022-08-21T05:52:37;7.25;;;3.95;;
9304;SDS011;4690;52.422;13.486;2022-08-21T05:55:03;6.60;;;3.72;;
9304;SDS011;4690;52.422;13.486;2022-08-21T05:57:29;8.75;;;3.70;;
9304;SDS011;4690;52.422;13.486;2022-08-21T05:59:55;9.05;;;3.75;;
9304;SDS011;4690;52.422;13.486;2022-08-21T06:02:21;5.93;;;3.80;;
9304;SDS011;4690;52.422;13.486;2022-08-21T06:04:47;7.88;;;3.63;;
9304;SDS011;4690;52.422;13.486;2022-08-21T06:07:13;6.68;;;3.72;;
9304;SDS011;4690;52.422;13.486;2022-08-21T06:09:40;8.43;;;3.65;;
9304;SDS011;4690;52.422;13.486;2022-08-21T06:12:07;9.15;;;3.33;;
9304;SDS011;4690;52.422;13.486;2022-08-21T06:14:37;6.30;;;3.40;;
9304;SDS011;4690;52.422;13.486;2022-08-21T06:17:06;8.23;;;3.50;;
9304;SDS011;4690;52.422;13.486;2022-08-21T06:19:35;5.40;;;3.50;;
9304;SDS011;4690;52.422;13.486;2022-08-21T06:22:02;10.57;;;3.72;;
9304;SDS011;4690;52.422;13.486;2022-08-21T06:24:29;10.20;;;3.85;;
9304;SDS011;4690;52.422;13.486;2022-08-21T06:26:56;8.23;;;4.03;;
9304;SDS011;4690;52.422;13.486;2022-08-21T06:29:22;8.13;;;3.70;;
9304;SDS011;4690;52.422;13.486;2022-08-21T06:31:49;6.55;;;4.00;;
9304;SDS011;4690;52.422;13.486;2022-08-21T06:34:17;6.45;;;3.90;;
9304;SDS011;4690;52.422;13.486;2022-08-21T06:36:43;9.50;;;4.38;;
9304;SDS011;4690;52.422;13.486;2022-08-21T06:39:09;8.82;;;3.83;;
9304;SDS011;4690;52.422;13.486;2022-08-21T06:41:35;5.88;;;3.78;;
9304;SDS011;4690;52.422;13.486;2022-08-21T06:44:01;5.38;;;3.72;;
9304;SDS011;4690;52.422;13.486;2022-08-21T06:46:27;11.38;;;4.45;;
9304;SDS011;4690;52.422;13.486;2022-08-21T06:48:55;11.98;;;3.92;;
9304;SDS011;4690;52.422;13.486;2022-08-21T06:51:21;9.10;;;3.95;;
9304;SDS011;4690;52.422;13.486;2022-08-21T06:53:48;7.50;;;4.07;;
9304;SDS011;4690;52.422;13.486;2022-08-21T06:56:14;9.70;;;3.88;;
9304;SDS011;4690;52.422;13.486;2022-08-21T06:58:40;9.73;;;3.30;;
9304;SDS011;4690;52.422;13.486;2022-08-21T07:01:06;8.00;;;3.83;;
9304;SDS011;4690;52.422;13.486;2022-08-21T07:03:33;9.13;;;4.00;;
9304;SDS011;4690;52.422;13.486;2022-08-21T07:06:06;9.52;;;3.90;;
9304;SDS011;4690;52.422;13.486;2022-08-21T07:08:33;7.00;;;3.60;;
9304;SDS011;4690;52.422;13.486;2022-08-21T07:11:00;7.22;;;3.60;;
9304;SDS011;4690;52.422;13.486;2022-08-21T07:13:31;6.43;;;3.40;;
9304;SDS011;4690;52.422;13.486;2022-08-21T07:15:57;7.07;;;3.80;;
9304;SDS011;4690;52.422;13.486;2022-08-21T07:18:23;8.60;;;3.80;;
9304;SDS011;4690;52.422;13.486;2022-08-21T07:20:49;6.63;;;3.50;;
9304;SDS011;4690;52.422;13.486;2022-08-21T07:23:20;7.30;;;3.40;;
9304;SDS011;4690;52.422;13.486;2022-08-21T07:25:55;7.63;;;3.20;;
9304;SDS011;4690;52.422;13.486;2022-08-21T07:28:21;5.45;;;2.95;;
9304;SDS011;4690;52.422;13.486;2022-08-21T07:30:49;6.75;;;3.40;;
9304;SDS011;4690;52.422;13.486;2022-08-21T07:33:19;5.82;;;3.08;;
9304;SDS011;4690;52.422;13.486;2022-08-21T07:35:45;6.75;;;2.92;;
9304;SDS011;4690;52.422;13.486;2022-08-21T07:38:11;4.40;;;2.92;;
9304;SDS011;4690;52.422;13.486;2022-08-21T07:40:37;9.35;;;3.20;;
9304;SDS011;4690;52.422;13.486;2022-08-21T07:43:03;5.75;;;3.17;;
9304;SDS011;4690;52.422;13.486;2022-08-21T07:45:29;4.60;;;2.83;;
9304;SDS011;4690;52.422;13.486;2022-08-21T07:47:55;6.55;;;3.10;;
9304;SDS011;4690;52.422;13.486;2022-08-21T07:50:21;4.90;;;2.90;;
9304;SDS011;4690;52.422;13.486;2022-08-21T07:52:47;8.52;;;3.10;;
9304;SDS011;4690;52.422;13.486;2022-08-21T07:55:14;4.80;;;3.00;;
9304;SDS011;4690;52.422;13.486;2022-08-21T07:57:45;5.93;;;2.95;;
9304;SDS011;4690;52.422;13.486;2022-08-21T08:00:15;3.92;;;2.50;;
9304;SDS011;4690;52.422;13.486;2022-08-21T08:02:46;4.97;;;2.55;;
9304;SDS011;4690;52.422;13.486;2022-08-21T08:05:16;4.95;;;2.90;;
9304;SDS011;4690;52.422;13.486;2022-08-21T08:07:44;7.05;;;2.70;;
9304;SDS011;4690;52.422;13.486;2022-08-21T08:10:10;6.90;;;2.78;;
9304;SDS011;4690;52.422;13.486;2022-08-21T08:12:37;4.97;;;2.22;;
9304;SDS011;4690;52.422;13.486;2022-08-21T08:15:06;4.80;;;2.50;;
9304;SDS011;4690;52.422;13.486;2022-08-21T08:17:36;4.32;;;2.25;;
9304;SDS011;4690;52.422;13.486;2022-08-21T08:20:06;4.93;;;2.53;;
9304;SDS011;4690;52.422;13.486;2022-08-21T08:22:34;4.80;;;2.30;;
9304;SDS011;4690;52.422;13.486;2022-08-21T08:25:04;8.02;;;2.65;;
9304;SDS011;4690;52.422;13.486;2022-08-21T08:27:31;4.40;;;2.20;;
9304;SDS011;4690;52.422;13.486;2022-08-21T08:29:57;5.75;;;2.33;;
9304;SDS011;4690;52.422;13.486;2022-08-21T08:32:23;4.47;;;2.22;;
9304;SDS011;4690;52.422;13.486;2022-08-21T08:34:49;4.60;;;1.92;;
9304;SDS011;4690;52.422;13.486;2022-08-21T08:37:17;3.47;;;2.20;;
9304;SDS011;4690;52.422;13.486;2022-08-21T08:39:45;5.07;;;2.25;;
9304;SDS011;4690;52.422;13.486;2022-08-21T08:42:16;4.28;;;2.22;;
9304;SDS011;4690;52.422;13.486;2022-08-21T08:44:55;5.57;;;2.25;;
9304;SDS011;4690;52.422;13.486;2022-08-21T08:47:31;5.88;;;2.72;;
9304;SDS011;4690;52.422;13.486;2022-08-21T08:50:13;5.82;;;2.40;;
9304;SDS011;4690;52.422;13.486;2022-08-21T08:52:49;4.45;;;2.40;;
9304;SDS011;4690;52.422;13.486;2022-08-21T08:55:26;4.15;;;2.10;;
9304;SDS011;4690;52.422;13.486;2022-08-21T08:58:00;6.45;;;2.22;;
9304;SDS011;4690;52.422;13.486;2022-08-21T09:00:28;3.75;;;2.28;;
9304;SDS011;4690;52.422;13.486;2022-08-21T09:02:56;3.70;;;2.25;;
9304;SDS011;4690;52.422;13.486;2022-08-21T09:05:27;6.40;;;2.50;;
9304;SDS011;4690;52.422;13.486;2022-08-21T09:08:14;6.35;;;2.70;;
9304;SDS011;4690;52.422;13.486;2022-08-21T09:22:17;4.93;;;2.25;;
9304;SDS011;4690;52.422;13.486;2022-08-21T09:25:22;2.92;;;2.20;;
9304;SDS011;4690;52.422;13.486;2022-08-21T09:27:51;3.92;;;2.13;;
9304;SDS011;4690;52.422;13.486;2022-08-21T09:30:17;2.70;;;2.20;;
9304;SDS011;4690;52.422;13.486;2022-08-21T09:32:51;6.25;;;2.40;;
9304;SDS011;4690;52.422;13.486;2022-08-21T09:35:20;3.05;;;2.38;;
9304;SDS011;4690;52.422;13.486;2022-08-21T09:43:21;4.13;;;2.20;;
9304;SDS011;4690;52.422;13.486;2022-08-21T09:45:49;4.22;;;2.30;;
9304;SDS011;4690;52.422;13.486;2022-08-21T09:48:37;2.90;;;2.35;;
9304;SDS011;4690;52.422;13.486;2022-08-21T09:51:23;4.93;;;2.42;;
9304;SDS011;4690;52.422;13.486;2022-08-21T09:54:14;6.40;;;2.28;;
9304;SDS011;4690;52.422;13.486;2022-08-21T09:57:19;4.25;;;2.38;;
9304;SDS011;4690;52.422;13.486;2022-08-21T09:59:54;5.22;;;2.83;;
9304;SDS011;4690;52.422;13.486;2022-08-21T10:05:00;3.28;;;2.10;;
9304;SDS011;4690;52.422;13.486;2022-08-21T10:07:41;3.45;;;2.05;;
9304;SDS011;4690;52.422;13.486;2022-08-21T10:10:16;5.55;;;2.30;;
9304;SDS011;4690;52.422;13.486;2022-08-21T10:46:36;3.53;;;2.30;;
9304;SDS011;4690;52.422;13.486;2022-08-21T10:49:24;3.70;;;2.30;;
9304;SDS011;4690;52.422;13.486;2022-08-21T10:55:21;6.18;;;3.20;;
9304;SDS011;4690;52.422;13.486;2022-08-21T10:58:04;3.35;;;2.28;;
9304;SDS011;4690;52.422;13.486;2022-08-21T11:00:44;2.88;;;1.95;;
9304;SDS011;4690;52.422;13.486;2022-08-21T11:03:31;5.63;;;2.45;;
9304;SDS011;4690;52.422;13.486;2022-08-21T11:06:25;3.53;;;2.08;;
9304;SDS011;4690;52.422;13.486;2022-08-21T11:09:02;3.40;;;1.83;;
9304;SDS011;4690;52.422;13.486;2022-08-21T11:11:56;4.63;;;2.40;;
9304;SDS011;4690;52.422;13.486;2022-08-21T11:14:37;4.40;;;2.20;;
9304;SDS011;4690;52.422;13.486;2022-08-21T11:17:24;3.45;;;2.38;;
9304;SDS011;4690;52.422;13.486;2022-08-21T11:20:10;4.38;;;2.45;;
9304;SDS011;4690;52.422;13.486;2022-08-21T11:22:50;6.35;;;2.60;;
9304;SDS011;4690;52.422;13.486;2022-08-21T11:25:35;6.15;;;2.60;;
9304;SDS011;4690;52.422;13.486;2022-08-21T11:28:08;7.22;;;2.63;;
9304;SDS011;4690;52.422;13.486;2022-08-21T11:30:57;8.63;;;3.00;;
9304;SDS011;4690;52.422;13.486;2022-08-21T11:42:28;4.78;;;2.17;;
9304;SDS011;4690;52.422;13.486;2022-08-21T11:48:07;3.83;;;2.50;;
9304;SDS011;4690;52.422;13.486;2022-08-21T11:50:46;5.65;;;2.40;;
9304;SDS011;4690;52.422;13.486;2022-08-21T11:53:26;4.60;;;2.25;;
9304;SDS011;4690;52.422;13.486;2022-08-21T11:56:03;2.60;;;2.28;;
9304;SDS011;4690;52.422;13.486;2022-08-21T11:58:54;4.05;;;2.50;;
9304;SDS011;4690;52.422;13.486;2022-08-21T12:01:35;4.22;;;2.28;;
9304;SDS011;4690;52.422;13.486;2022-08-21T12:04:22;2.95;;;2.40;;
9304;SDS011;4690;52.422;13.486;2022-08-21T12:07:11;3.10;;;2.40;;
9304;SDS011;4690;52.422;13.486;2022-08-21T12:09:51;3.25;;;2.05;;
9304;SDS011;4690;52.422;13.486;2022-08-21T12:12:37;2.50;;;2.30;;
9304;SDS011;4690;52.422;13.486;2022-08-21T12:26:48;5.03;;;2.00;;
9304;SDS011;4690;52.422;13.486;2022-08-21T12:34:32;3.85;;;2.30;;
9304;SDS011;4690;52.422;13.486;2022-08-21T12:37:02;3.10;;;2.13;;
9304;SDS011;4690;52.422;13.486;2022-08-21T12:39:50;2.97;;;2.20;;
9304;SDS011;4690;52.422;13.486;2022-08-21T12:42:23;2.95;;;2.08;;
9304;SDS011;4690;52.422;13.486;2022-08-21T12:45:04;3.80;;;2.17;;
9304;SDS011;4690;52.422;13.486;2022-08-21T12:47:45;2.88;;;2.10;;
9304;SDS011;4690;52.422;13.486;2022-08-21T12:56:10;2.42;;;2.17;;
9304;SDS011;4690;52.422;13.486;2022-08-21T12:58:41;2.83;;;2.35;;
9304;SDS011;4690;52.422;13.486;2022-08-21T13:03:52;3.95;;;1.95;;
9304;SDS011;4690;52.422;13.486;2022-08-21T13:06:32;4.50;;;1.80;;
9304;SDS011;4690;52.422;13.486;2022-08-21T13:09:05;3.65;;;2.00;;
9304;SDS011;4690;52.422;13.486;2022-08-21T13:11:35;3.75;;;2.10;;
9304;SDS011;4690;52.422;13.486;2022-08-21T13:14:04;2.35;;;1.90;;
9304;SDS011;4690;52.422;13.486;2022-08-21T13:16:34;2.05;;;1.85;;
9304;SDS011;4690;52.422;13.486;2022-08-21T13:19:02;3.50;;;2.05;;
9304;SDS011;4690;52.422;13.486;2022-08-21T13:21:38;1.80;;;1.60;;
9304;SDS011;4690;52.422;13.486;2022-08-21T13:26:39;2.78;;;1.80;;
9304;SDS011;4690;52.422;13.486;2022-08-21T13:29:06;2.80;;;2.03;;
9304;SDS011;4690;52.422;13.486;2022-08-21T13:31:45;2.30;;;1.88;;
9304;SDS011;4690;52.422;13.486;2022-08-21T13:34:18;4.00;;;1.90;;
9304;SDS011;4690;52.422;13.486;2022-08-21T13:36:51;2.78;;;2.00;;
9304;SDS011;4690;52.422;13.486;2022-08-21T13:39:23;3.28;;;2.00;;
9304;SDS011;4690;52.422;13.486;2022-08-21T13:41:51;3.28;;;2.10;;
9304;SDS011;4690;52.422;13.486;2022-08-21T13:44:31;2.17;;;1.98;;
9304;SDS011;4690;52.422;13.486;2022-08-21T13:46:58;2.20;;;2.00;;
9304;SDS011;4690;52.422;13.486;2022-08-21T13:49:38;3.33;;;2.30;;
9304;SDS011;4690;52.422;13.486;2022-08-21T13:52:16;3.15;;;2.38;;
9304;SDS011;4690;52.422;13.486;2022-08-21T13:55:09;2.67;;;2.00;;
9304;SDS011;4690;52.422;13.486;2022-08-21T13:57:41;2.88;;;2.30;;
9304;SDS011;4690;52.422;13.486;2022-08-21T14:02:40;3.75;;;2.45;;
9304;SDS011;4690;52.422;13.486;2022-08-21T14:05:15;3.35;;;2.25;;
9304;SDS011;4690;52.422;13.486;2022-08-21T14:08:02;3.08;;;2.10;;
9304;SDS011;4690;52.422;13.486;2022-08-21T14:10:43;2.90;;;2.20;;
9304;SDS011;4690;52.422;13.486;2022-08-21T14:13:27;2.95;;;2.17;;
9304;SDS011;4690;52.422;13.486;2022-08-21T14:16:18;3.80;;;2.30;;
9304;SDS011;4690;52.422;13.486;2022-08-21T14:21:32;2.55;;;2.20;;
9304;SDS011;4690;52.422;13.486;2022-08-21T14:26:51;2.25;;;2.05;;
9304;SDS011;4690;52.422;13.486;2022-08-21T14:29:21;6.50;;;2.78;;
9304;SDS011;4690;52.422;13.486;2022-08-21T14:31:58;3.75;;;2.50;;
9304;SDS011;4690;52.422;13.486;2022-08-21T14:34:33;3.33;;;2.20;;
9304;SDS011;4690;52.422;13.486;2022-08-21T14:36:58;4.50;;;2.50;;
9304;SDS011;4690;52.422;13.486;2022-08-21T14:39:24;9.10;;;2.45;;
9304;SDS011;4690;52.422;13.486;2022-08-21T14:41:50;4.65;;;2.42;;
9304;SDS011;4690;52.422;13.486;2022-08-21T14:44:17;3.80;;;2.33;;
9304;SDS011;4690;52.422;13.486;2022-08-21T14:46:44;3.47;;;2.53;;
9304;SDS011;4690;52.422;13.486;2022-08-21T14:49:11;2.75;;;2.13;;
9304;SDS011;4690;52.422;13.486;2022-08-21T14:51:37;3.20;;;2.30;;
9304;SDS011;4690;52.422;13.486;2022-08-21T14:54:04;3.42;;;2.53;;
9304;SDS011;4690;52.422;13.486;2022-08-21T14:56:31;4.82;;;2.90;;
9304;SDS011;4690;52.422;13.486;2022-08-21T14:58:59;4.63;;;2.80;;
9304;SDS011;4690;52.422;13.486;2022-08-21T15:01:31;3.72;;;2.50;;
9304;SDS011;4690;52.422;13.486;2022-08-21T15:04:02;3.08;;;2.40;;
9304;SDS011;4690;52.422;13.486;2022-08-21T15:06:28;5.93;;;3.60;;
9304;SDS011;4690;52.422;13.486;2022-08-21T15:08:54;2.92;;;2.58;;
9304;SDS011;4690;52.422;13.486;2022-08-21T15:11:21;3.67;;;2.80;;
9304;SDS011;4690;52.422;13.486;2022-08-21T15:13:51;4.63;;;2.70;;
9304;SDS011;4690;52.422;13.486;2022-08-21T15:16:22;5.35;;;2.58;;
9304;SDS011;4690;52.422;13.486;2022-08-21T15:18:49;3.50;;;2.72;;
9304;SDS011;4690;52.422;13.486;2022-08-21T15:21:15;3.03;;;2.42;;
9304;SDS011;4690;52.422;13.486;2022-08-21T15:23:40;5.28;;;2.65;;
9304;SDS011;4690;52.422;13.486;2022-08-21T15:26:06;3.63;;;2.53;;
9304;SDS011;4690;52.422;13.486;2022-08-21T15:28:33;3.05;;;2.40;;
9304;SDS011;4690;52.422;13.486;2022-08-21T15:31:00;3.88;;;2.53;;
9304;SDS011;4690;52.422;13.486;2022-08-21T15:33:26;6.15;;;2.92;;
9304;SDS011;4690;52.422;13.486;2022-08-21T15:35:52;4.55;;;2.63;;
9304;SDS011;4690;52.422;13.486;2022-08-21T15:38:18;4.97;;;2.85;;
9304;SDS011;4690;52.422;13.486;2022-08-21T15:40:43;3.65;;;2.70;;
9304;SDS011;4690;52.422;13.486;2022-08-21T15:43:18;3.97;;;2.65;;
9304;SDS011;4690;52.422;13.486;2022-08-21T15:45:55;3.78;;;2.95;;
9304;SDS011;4690;52.422;13.486;2022-08-21T15:48:24;4.65;;;3.10;;
9304;SDS011;4690;52.422;13.486;2022-08-21T15:50:50;4.78;;;2.88;;
9304;SDS011;4690;52.422;13.486;2022-08-21T15:53:16;6.50;;;3.08;;
9304;SDS011;4690;52.422;13.486;2022-08-21T15:55:42;3.90;;;2.88;;
9304;SDS011;4690;52.422;13.486;2022-08-21T15:58:11;6.38;;;2.75;;
9304;SDS011;4690;52.422;13.486;2022-08-21T16:00:40;4.25;;;3.30;;
9304;SDS011;4690;52.422;13.486;2022-08-21T16:03:10;6.22;;;2.80;;
9304;SDS011;4690;52.422;13.486;2022-08-21T16:05:42;4.30;;;2.50;;
9304;SDS011;4690;52.422;13.486;2022-08-21T16:08:09;4.18;;;2.70;;
9304;SDS011;4690;52.422;13.486;2022-08-21T16:10:36;3.50;;;2.88;;
9304;SDS011;4690;52.422;13.486;2022-08-21T16:13:04;4.13;;;2.67;;
9304;SDS011;4690;52.422;13.486;2022-08-21T16:15:39;3.08;;;2.78;;
9304;SDS011;4690;52.422;13.486;2022-08-21T16:18:05;4.97;;;2.83;;
9304;SDS011;4690;52.422;13.486;2022-08-21T16:20:31;4.88;;;3.03;;
9304;SDS011;4690;52.422;13.486;2022-08-21T16:22:57;3.58;;;2.55;;
9304;SDS011;4690;52.422;13.486;2022-08-21T16:25:23;5.25;;;3.20;;
9304;SDS011;4690;52.422;13.486;2022-08-21T16:27:51;4.55;;;2.95;;
9304;SDS011;4690;52.422;13.486;2022-08-21T16:30:22;3.63;;;2.90;;
9304;SDS011;4690;52.422;13.486;2022-08-21T16:32:50;3.95;;;3.08;;
9304;SDS011;4690;52.422;13.486;2022-08-21T16:35:17;3.00;;;2.67;;
9304;SDS011;4690;52.422;13.486;2022-08-21T16:37:45;3.78;;;3.00;;
9304;SDS011;4690;52.422;13.486;2022-08-21T16:40:11;4.35;;;2.90;;
9304;SDS011;4690;52.422;13.486;2022-08-21T16:42:39;3.90;;;2.72;;
9304;SDS011;4690;52.422;13.486;2022-08-21T16:45:07;3.20;;;2.65;;
9304;SDS011;4690;52.422;13.486;2022-08-21T16:47:37;4.10;;;2.90;;
9304;SDS011;4690;52.422;13.486;2022-08-21T16:50:03;4.78;;;2.90;;
9304;SDS011;4690;52.422;13.486;2022-08-21T16:52:31;2.75;;;2.55;;
9304;SDS011;4690;52.422;13.486;2022-08-21T16:54:58;3.30;;;2.90;;
9304;SDS011;4690;52.422;13.486;2022-08-21T16:57:24;4.95;;;2.97;;
9304;SDS011;4690;52.422;13.486;2022-08-21T16:59:50;5.50;;;3.15;;
9304;SDS011;4690;52.422;13.486;2022-08-21T17:02:27;4.00;;;3.10;;
9304;SDS011;4690;52.422;13.486;2022-08-21T17:04:58;4.75;;;3.20;;
9304;SDS011;4690;52.422;13.486;2022-08-21T17:07:26;5.28;;;3.30;;
9304;SDS011;4690;52.422;13.486;2022-08-21T17:09:52;4.50;;;3.58;;